Time;durP1;ratioP1;P1;durP2;ratioP2;P2;SDS_P1;SDS_P2;PMS_P1;PMS_P2;Temp;Humidity;BMP_temperature;BMP_pressure;BME280_temperature;BME280_humidity;BME280_pressure;Samples;Min_cycle;Max_cycle;Signal;HPM_P1;HPM_P2
2022/09/16 00:01:05;;;;;;;;;;;;;;;;;;4347798;33;20214;-71
2022/09/16 00:03:33;;;;;;;12.63;3.50;;;;;;;;;;4347514;33;20305;-71
2022/09/16 00:05:59;;;;;;;14.65;3.47;;;;;;;;;;4345855;33;20141;-70
2022/09/16 00:08:24;;;;;;;15.00;4.40;;;;;;;;;;4347233;33;20031;-72
2022/09/16 00:10:49;;;;;;;;;;;;;;;;;;4347878;33;20071;-72
2022/09/16 00:13:15;;;;;;;7.10;2.25;;;;;;;;;;4347901;33;19931;-71
2022/09/16 00:15:41;;;;;;;9.00;2.40;;;;;;;;;;4348293;33;20058;-71
2022/09/16 00:18:06;;;;;;;9.25;2.65;;;;;;;;;;4346096;33;20067;-71
2022/09/16 00:20:31;;;;;;;8.48;2.60;;;;;;;;;;4347069;33;20520;-71
2022/09/16 00:22:57;;;;;;;12.80;2.15;;;;;;;;;;4347474;33;20081;-71
2022/09/16 00:25:22;;;;;;;16.37;2.37;;;;;;;;;;4347409;33;20504;-71
2022/09/16 00:27:48;;;;;;;11.60;2.33;;;;;;;;;;4347772;33;20028;-71
2022/09/16 00:30:13;;;;;;;13.20;2.00;;;;;;;;;;4347221;33;20070;-71
2022/09/16 00:32:38;;;;;;;12.37;2.67;;;;;;;;;;4348022;33;20094;-71
2022/09/16 00:35:04;;;;;;;12.02;2.10;;;;;;;;;;4345680;33;20333;-71
2022/09/16 00:37:31;;;;;;;9.60;2.05;;;;;;;;;;4347395;33;20103;-71
2022/09/16 00:39:56;;;;;;;8.38;2.45;;;;;;;;;;4345885;33;20101;-71
2022/09/16 00:42:21;;;;;;;12.43;2.87;;;;;;;;;;4347507;33;20406;-71
2022/09/16 00:45:01;;;;;;;9.98;2.05;;;;;;;;;;4347169;33;20054;-72
2022/09/16 00:47:49;;;;;;;7.03;1.83;;;;;;;;;;4346942;33;20473;-71
2022/09/16 00:50:15;;;;;;;6.87;1.70;;;;;;;;;;4344597;33;20031;-71
2022/09/16 00:52:40;;;;;;;6.70;1.52;;;;;;;;;;4347708;33;20061;-72
2022/09/16 00:55:07;;;;;;;7.25;1.67;;;;;;;;;;4346903;33;20067;-70
2022/09/16 00:57:33;;;;;;;9.70;1.90;;;;;;;;;;4346451;33;20028;-71
2022/09/16 00:59:59;;;;;;;5.72;1.40;;;;;;;;;;4346492;33;20050;-70
2022/09/16 01:02:24;;;;;;;9.50;1.87;;;;;;;;;;4346541;33;20031;-70
2022/09/16 01:04:50;;;;;;;;;;;;;;;;;;4346636;33;20099;-70
2022/09/16 01:07:17;;;;;;;6.80;1.60;;;;;;;;;;4347388;33;19985;-70
2022/09/16 01:09:42;;;;;;;6.68;1.70;;;;;;;;;;4347449;33;20035;-70
2022/09/16 01:12:07;;;;;;;7.50;1.83;;;;;;;;;;4347015;33;20369;-70
2022/09/16 01:17:22;;;;;;;10.60;1.73;;;;;;;;;;4346954;33;20421;-70
2022/09/16 01:19:59;;;;;;;6.25;1.87;;;;;;;;;;4346705;33;20138;-70
2022/09/16 01:22:47;;;;;;;6.53;2.15;;;;;;;;;;4346674;33;20081;-70
2022/09/16 01:26:03;;;;;;;8.70;1.48;;;;;;;;;;4347509;33;20062;-70
2022/09/16 01:28:37;;;;;;;7.97;1.70;;;;;;;;;;4330392;33;20504;-71
2022/09/16 01:31:08;;;;;;;8.75;1.62;;;;;;;;;;4345006;33;20425;-71
2022/09/16 01:33:54;;;;;;;9.30;1.45;;;;;;;;;;4346902;33;20027;-70
2022/09/16 01:36:35;;;;;;;8.05;1.60;;;;;;;;;;4346535;33;20410;-70
2022/09/16 01:39:00;;;;;;;9.50;1.87;;;;;;;;;;4345650;33;20043;-71
2022/09/16 01:41:41;;;;;;;8.88;2.17;;;;;;;;;;4346359;33;20059;-71
2022/09/16 01:44:12;;;;;;;7.18;2.03;;;;;;;;;;4346195;33;20439;-70
2022/09/16 01:46:45;;;;;;;12.95;2.83;;;;;;;;;;4345775;33;20346;-71
2022/09/16 01:49:13;;;;;;;7.55;1.90;;;;;;;;;;4346570;33;20046;-70
2022/09/16 01:51:50;;;;;;;5.12;1.77;;;;;;;;;;4346783;33;20054;-71
2022/09/16 01:54:20;;;;;;;8.10;1.62;;;;;;;;;;4346762;33;20028;-70
2022/09/16 01:56:53;;;;;;;9.52;1.80;;;;;;;;;;4347901;33;20430;-70
2022/09/16 01:59:20;;;;;;;9.48;1.85;;;;;;;;;;4347183;33;20392;-70
2022/09/16 02:02:07;;;;;;;7.12;2.22;;;;;;;;;;4346416;33;20067;-70
2022/09/16 02:04:44;;;;;;;8.07;1.80;;;;;;;;;;4345483;33;20397;-70
2022/09/16 02:07:14;;;;;;;7.97;1.65;;;;;;;;;;4346311;33;20079;-70
2022/09/16 02:09:46;;;;;;;6.45;1.87;;;;;;;;;;4345286;33;20031;-70
2022/09/16 02:12:16;;;;;;;5.37;1.70;;;;;;;;;;4346788;33;20078;-70
2022/09/16 02:14:42;;;;;;;3.83;1.30;;;;;;;;;;4346237;33;20043;-70
2022/09/16 02:17:14;;;;;;;10.30;1.40;;;;;;;;;;4346279;33;20069;-71
2022/09/16 02:19:45;;;;;;;10.90;2.15;;;;;;;;;;4345572;33;20357;-70
2022/09/16 02:22:12;;;;;;;7.30;1.75;;;;;;;;;;4346327;33;20031;-71
2022/09/16 02:24:40;;;;;;;6.75;1.35;;;;;;;;;;4346202;33;20032;-70
2022/09/16 02:27:08;;;;;;;7.57;1.90;;;;;;;;;;4345370;33;20028;-70
2022/09/16 02:29:40;;;;;;;15.48;1.87;;;;;;;;;;4346765;33;20063;-70
2022/09/16 02:32:07;;;;;;;8.88;1.55;;;;;;;;;;4345678;33;20042;-71
2022/09/16 02:34:47;;;;;;;4.93;1.35;;;;;;;;;;4346409;33;20070;-71
2022/09/16 02:37:31;;;;;;;5.22;1.75;;;;;;;;;;4346204;33;20023;-71
2022/09/16 02:40:01;;;;;;;10.52;1.60;;;;;;;;;;4345360;33;20108;-71
2022/09/16 02:42:27;;;;;;;7.30;1.30;;;;;;;;;;4345280;33;20082;-71
2022/09/16 02:44:56;;;;;;;10.18;2.08;;;;;;;;;;4346216;33;20035;-71
2022/09/16 02:47:32;;;;;;;7.00;2.22;;;;;;;;;;4346421;33;20377;-71
2022/09/16 02:50:30;;;;;;;5.60;1.40;;;;;;;;;;4345894;33;20028;-71
2022/09/16 02:52:59;;;;;;;8.30;1.58;;;;;;;;;;4328424;33;20057;-71
2022/09/16 02:55:43;;;;;;;5.72;1.45;;;;;;;;;;4345777;33;20032;-71
2022/09/16 02:58:09;;;;;;;3.60;1.40;;;;;;;;;;4345834;33;20028;-71
2022/09/16 03:00:36;;;;;;;7.10;1.75;;;;;;;;;;4346018;33;20082;-71
2022/09/16 03:03:02;;;;;;;7.47;1.50;;;;;;;;;;4343628;33;20094;-71
2022/09/16 03:05:28;;;;;;;3.78;1.33;;;;;;;;;;4345971;33;20043;-71
2022/09/16 03:07:54;;;;;;;5.90;1.60;;;;;;;;;;4346254;33;20027;-71
2022/09/16 03:10:20;;;;;;;6.25;1.60;;;;;;;;;;4343427;33;20061;-71
2022/09/16 03:13:29;;;;;;;7.37;1.77;;;;;;;;;;4344855;33;20024;-71
2022/09/16 03:16:04;;;;;;;9.90;2.17;;;;;;;;;;4345229;33;20453;-71
2022/09/16 03:18:42;;;;;;;6.40;1.80;;;;;;;;;;4346244;33;20358;-70
2022/09/16 03:21:20;;;;;;;3.15;1.15;;;;;;;;;;4333923;33;20113;-71
2022/09/16 03:23:52;;;;;;;6.10;1.42;;;;;;;;;;4334970;33;20129;-71
2022/09/16 03:26:21;;;;;;;5.53;1.25;;;;;;;;;;4349266;33;20097;-71
2022/09/16 03:29:01;;;;;;;;;;;;;;;;;;;;;
2022/09/16 03:34:32;;;;;;;2.42;1.08;;;;;;;;;;4348391;33;20077;-71
2022/09/16 03:37:00;;;;;;;7.12;1.52;;;;;;;;;;4348504;33;20390;-70
2022/09/16 03:48:29;;;;;;;6.50;1.65;;;;;;;;;;4347820;33;20468;-71
2022/09/16 03:50:57;;;;;;;7.72;1.42;;;;;;;;;;4348662;33;20031;-71
2022/09/16 03:53:22;;;;;;;10.30;1.67;;;;;;;;;;4348805;33;20423;-71
2022/09/16 03:55:48;;;;;;;5.62;1.98;;;;;;;;;;4347355;33;20027;-71
2022/09/16 03:58:14;;;;;;;8.70;1.95;;;;;;;;;;4347830;33;20028;-71
2022/09/16 04:00:49;;;;;;;9.07;1.30;;;;;;;;;;4347615;33;20405;-71
2022/09/16 04:03:15;;;;;;;10.27;2.85;;;;;;;;;;4347354;33;20011;-71
2022/09/16 04:05:40;;;;;;;;;;;;;;;;;;4334363;33;20082;-71
2022/09/16 04:08:05;;;;;;;6.03;1.50;;;;;;;;;;4348793;33;19965;-71
2022/09/16 04:10:33;;;;;;;6.75;1.12;;;;;;;;;;4347684;33;20051;-71
2022/09/16 04:12:59;;;;;;;5.37;1.52;;;;;;;;;;4347471;33;20031;-71
2022/09/16 04:15:24;;;;;;;5.03;1.33;;;;;;;;;;4348252;33;20070;-71
2022/09/16 04:17:50;;;;;;;;;;;;;;;;;;4347788;33;20031;-71
2022/09/16 04:20:15;;;;;;;4.72;1.35;;;;;;;;;;4348163;33;19981;-71
2022/09/16 04:22:40;;;;;;;;;;;;;;;;;;4347612;33;20083;-71
2022/09/16 04:25:06;;;;;;;7.45;1.90;;;;;;;;;;4348227;33;19975;-71
2022/09/16 04:27:32;;;;;;;7.47;1.65;;;;;;;;;;4347212;33;20054;-70
2022/09/16 04:29:57;;;;;;;10.48;1.90;;;;;;;;;;4347252;33;20094;-71
2022/09/16 04:35:34;;;;;;;9.68;2.58;;;;;;;;;;4287057;33;20520;-71
2022/09/16 04:38:10;;;;;;;6.65;1.75;;;;;;;;;;4340388;33;20075;-71
2022/09/16 04:40:38;;;;;;;7.43;1.77;;;;;;;;;;4344608;33;20047;-71
2022/09/16 04:43:03;;;;;;;6.53;2.00;;;;;;;;;;4346938;33;20027;-70
2022/09/16 04:45:29;;;;;;;6.05;1.60;;;;;;;;;;4347001;33;20070;-70
2022/09/16 04:47:54;;;;;;;;;;;;;;;;;;4347524;33;20019;-70
2022/09/16 04:50:50;;;;;;;10.07;2.08;;;;;;;;;;4347064;33;19939;-71
2022/09/16 04:53:21;;;;;;;12.50;1.90;;;;;;;;;;4347085;33;20027;-70
2022/09/16 04:56:00;;;;;;;11.55;1.95;;;;;;;;;;4347664;33;20390;-70
2022/09/16 04:58:28;;;;;;;6.43;2.05;;;;;;;;;;4345713;33;20032;-71
2022/09/16 05:00:54;;;;;;;6.10;1.80;;;;;;;;;;4347270;33;20035;-71
2022/09/16 05:03:22;;;;;;;12.18;2.65;;;;;;;;;;4346890;33;20430;-71
2022/09/16 05:05:53;;;;;;;15.30;3.85;;;;;;;;;;4346260;33;20066;-70
2022/09/16 05:08:26;;;;;;;14.00;3.70;;;;;;;;;;4346354;33;20074;-70
2022/09/16 05:10:51;;;;;;;21.05;6.82;;;;;;;;;;4346976;33;20139;-70
2022/09/16 05:13:28;;;;;;;19.90;5.72;;;;;;;;;;4346458;33;20405;-71
2022/09/16 05:15:54;;;;;;;9.32;2.67;;;;;;;;;;4346569;33;20078;-70
2022/09/16 05:18:19;;;;;;;27.65;7.32;;;;;;;;;;4346459;33;20426;-71
2022/09/16 05:21:11;;;;;;;16.23;4.65;;;;;;;;;;4346248;33;20074;-71
2022/09/16 05:23:36;;;;;;;17.42;3.80;;;;;;;;;;4343927;33;20023;-71
2022/09/16 05:26:03;;;;;;;12.80;3.12;;;;;;;;;;4346016;33;20342;-71
2022/09/16 05:28:36;;;;;;;12.45;2.92;;;;;;;;;;4347170;33;20102;-71
2022/09/16 05:31:20;;;;;;;11.75;3.12;;;;;;;;;;4347241;33;20386;-71
2022/09/16 05:34:27;;;;;;;8.32;3.72;;;;;;;;;;4346266;33;20069;-71
2022/09/16 05:37:05;;;;;;;9.70;2.47;;;;;;;;;;4329497;33;20395;-71
2022/09/16 05:39:30;;;;;;;14.02;2.50;;;;;;;;;;4344264;33;20040;-70
2022/09/16 05:41:59;;;;;;;15.63;2.95;;;;;;;;;;4346333;33;20102;-71
2022/09/16 05:44:34;;;;;;;11.85;2.97;;;;;;;;;;4345286;33;20020;-70
2022/09/16 05:47:03;;;;;;;21.60;4.07;;;;;;;;;;4346368;33;20093;-71
2022/09/16 05:49:49;;;;;;;14.38;3.17;;;;;;;;;;4345785;33;20063;-70
2022/09/16 05:52:14;;;;;;;15.52;3.00;;;;;;;;;;4346491;33;20436;-71
2022/09/16 05:54:40;;;;;;;11.07;3.22;;;;;;;;;;4332028;33;20024;-71
2022/09/16 05:57:05;;;;;;;;;;;;;;;;;;4345897;33;20031;-71
2022/09/16 05:59:39;;;;;;;13.32;3.70;;;;;;;;;;4345920;33;19953;-71
2022/09/16 06:02:08;;;;;;;16.98;4.10;;;;;;;;;;4345942;33;20027;-71
2022/09/16 06:04:34;;;;;;;22.30;4.37;;;;;;;;;;4345252;33;20046;-71
2022/09/16 06:07:00;;;;;;;14.38;3.53;;;;;;;;;;4345234;33;20058;-71
2022/09/16 06:09:29;;;;;;;13.50;3.70;;;;;;;;;;4345853;33;20399;-70
2022/09/16 06:12:46;;;;;;;;;;;;;;;;;;;;;
2022/09/16 06:35:27;;;;;;;11.32;2.97;;;;;;;;;;4299538;33;20427;-72
2022/09/16 06:37:58;;;;;;;18.73;2.78;;;;;;;;;;4302972;33;20036;-72
2022/09/16 07:10:48;;;;;;;9.77;2.00;;;;;;;;;;4184602;34;20405;-72
2022/09/16 07:13:32;;;;;;;16.70;3.00;;;;;;;;;;4199742;34;20447;-72
2022/09/16 07:16:00;;;;;;;6.95;1.75;;;;;;;;;;4277106;33;20086;-72
2022/09/16 07:18:26;;;;;;;8.20;2.10;;;;;;;;;;4318712;33;20095;-71
2022/09/16 07:20:51;;;;;;;9.25;2.90;;;;;;;;;;4305929;33;20033;-71
2022/09/16 07:23:16;;;;;;;14.85;2.00;;;;;;;;;;4318536;33;20059;-71
2022/09/16 08:50:38;;;;;;;8.63;2.42;;;;;;;;;;4331822;33;20544;-70
2022/09/16 09:09:34;;;;;;;7.97;2.50;;;;;;;;;;4343450;33;20053;-71
2022/09/16 09:15:26;;;;;;;10.52;2.10;;;;;;;;;;4331776;33;20426;-71
2022/09/16 09:18:11;;;;;;;;;;;;;;;;;;;;;
2022/09/16 09:51:43;;;;;;;6.47;1.98;;;;;;;;;;4269327;33;20084;-71
2022/09/16 10:15:52;;;;;;;8.55;1.50;;;;;;;;;;4269903;33;20453;-71
2022/09/16 10:43:26;;;;;;;12.43;2.22;;;;;;;;;;4228374;33;20041;-71
2022/09/16 10:58:24;;;;;;;7.12;2.00;;;;;;;;;;4225473;33;20070;-71
2022/09/16 11:01:18;;;;;;;;;;;;;;;;;;;;;
2022/09/16 11:04:51;;;;;;;4.97;1.87;;;;;;;;;;4284871;33;20040;-70
2022/09/16 11:13:37;;;;;;;5.85;1.60;;;;;;;;;;4275615;33;20045;-70
2022/09/16 11:16:41;;;;;;;5.55;1.62;;;;;;;;;;4275102;33;20063;-71
2022/09/16 11:19:12;;;;;;;3.87;1.17;;;;;;;;;;4328486;33;20044;-71
2022/09/16 11:21:46;;;;;;;6.50;1.75;;;;;;;;;;4328086;33;20087;-70
2022/09/16 11:24:21;;;;;;;3.85;1.20;;;;;;;;;;4329493;33;20406;-70
2022/09/16 11:27:12;;;;;;;6.18;1.45;;;;;;;;;;4328950;33;20058;-70
2022/09/16 11:29:40;;;;;;;11.27;2.15;;;;;;;;;;4330121;33;20086;-70
2022/09/16 11:32:38;;;;;;;9.27;1.65;;;;;;;;;;4330048;33;20056;-70
2022/09/16 11:35:12;;;;;;;7.55;1.40;;;;;;;;;;4328963;33;20032;-71
2022/09/16 11:37:37;;;;;;;6.28;1.90;;;;;;;;;;4330318;33;20331;-70
2022/09/16 11:40:25;;;;;;;5.95;1.83;;;;;;;;;;4329925;33;20055;-70
2022/09/16 11:43:12;;;;;;;7.53;2.22;;;;;;;;;;4332648;33;20033;-70
2022/09/16 11:45:40;;;;;;;10.10;2.00;;;;;;;;;;4332316;33;20071;-70
2022/09/16 11:48:24;;;;;;;11.18;1.85;;;;;;;;;;4333104;33;20339;-70
2022/09/16 11:53:59;;;;;;;10.02;2.20;;;;;;;;;;4330855;33;20079;-69
2022/09/16 11:56:31;;;;;;;6.72;1.95;;;;;;;;;;4331632;33;20024;-70
2022/09/16 11:58:59;;;;;;;9.10;2.20;;;;;;;;;;4332712;33;20065;-70
2022/09/16 12:01:30;;;;;;;12.90;2.67;;;;;;;;;;4332270;33;20058;-69
2022/09/16 12:04:17;;;;;;;11.77;2.33;;;;;;;;;;4332259;33;20024;-71
2022/09/16 12:06:51;;;;;;;12.15;2.30;;;;;;;;;;4333307;33;20046;-71
2022/09/16 12:09:21;;;;;;;10.25;1.87;;;;;;;;;;4332984;33;20070;-70
2022/09/16 12:11:52;;;;;;;5.20;2.00;;;;;;;;;;4333395;33;20019;-71
2022/09/16 12:14:34;;;;;;;8.00;2.10;;;;;;;;;;4319345;33;20508;-70
2022/09/16 12:17:10;;;;;;;6.80;2.22;;;;;;;;;;4332781;33;20414;-69
2022/09/16 12:19:39;;;;;;;10.65;2.83;;;;;;;;;;4333164;33;20036;-69
2022/09/16 12:22:07;;;;;;;9.02;2.62;;;;;;;;;;4332309;33;20435;-72
2022/09/16 12:24:55;;;;;;;8.98;2.28;;;;;;;;;;4319294;33;20327;-70
2022/09/16 12:27:24;;;;;;;10.43;3.15;;;;;;;;;;4332866;33;20047;-70
2022/09/16 12:30:04;;;;;;;14.20;3.00;;;;;;;;;;4332480;33;20028;-70
2022/09/16 12:32:34;;;;;;;11.35;2.67;;;;;;;;;;4331791;33;20047;-70
2022/09/16 12:35:09;;;;;;;10.70;2.83;;;;;;;;;;4332606;33;20020;-69
2022/09/16 12:37:38;;;;;;;8.48;2.45;;;;;;;;;;4332437;33;20473;-70
2022/09/16 12:40:04;;;;;;;9.27;2.90;;;;;;;;;;4331677;33;20028;-70
2022/09/16 12:42:47;;;;;;;9.98;1.90;;;;;;;;;;4332801;33;20071;-70
2022/09/16 12:45:35;;;;;;;10.60;2.12;;;;;;;;;;4332032;33;20453;-70
2022/09/16 12:48:19;;;;;;;11.73;3.37;;;;;;;;;;4332410;33;20041;-69
2022/09/16 12:50:57;;;;;;;12.35;2.20;;;;;;;;;;4332785;33;20070;-69
2022/09/16 12:53:22;;;;;;;12.15;2.40;;;;;;;;;;4331513;33;20033;-69
2022/09/16 12:56:09;;;;;;;9.20;2.75;;;;;;;;;;4331538;33;20079;-69
2022/09/16 12:59:06;;;;;;;9.00;2.05;;;;;;;;;;4331888;33;20039;-69
2022/09/16 13:01:36;;;;;;;12.07;2.00;;;;;;;;;;4327871;33;20094;-69
2022/09/16 13:04:12;;;;;;;4.78;1.90;;;;;;;;;;4331949;33;20414;-69
2022/09/16 13:06:39;;;;;;;8.15;2.80;;;;;;;;;;4332634;33;20135;-69
2022/09/16 13:09:23;;;;;;;9.45;1.80;;;;;;;;;;4331820;33;20362;-69
2022/09/16 13:11:56;;;;;;;5.72;1.90;;;;;;;;;;4331219;33;20059;-69
2022/09/16 13:14:23;;;;;;;8.90;2.10;;;;;;;;;;4331221;33;20086;-69
2022/09/16 13:16:55;;;;;;;5.18;1.65;;;;;;;;;;4332382;33;20327;-69
2022/09/16 13:19:23;;;;;;;7.32;2.22;;;;;;;;;;4331428;33;20078;-69
2022/09/16 13:21:53;;;;;;;6.80;2.22;;;;;;;;;;4332346;33;20316;-68
2022/09/16 13:24:37;;;;;;;8.73;2.03;;;;;;;;;;4331924;33;20067;-68
2022/09/16 13:27:21;;;;;;;6.07;1.50;;;;;;;;;;4331279;33;20032;-69
2022/09/16 13:29:47;;;;;;;7.12;1.50;;;;;;;;;;4332469;33;20024;-70
2022/09/16 13:32:37;;;;;;;8.15;2.22;;;;;;;;;;4331916;33;20451;-68
2022/09/16 13:35:22;;;;;;;6.28;1.98;;;;;;;;;;4331642;33;20024;-69
2022/09/16 13:37:56;;;;;;;8.27;2.37;;;;;;;;;;4331315;33;20086;-69
2022/09/16 13:40:24;;;;;;;16.45;2.05;;;;;;;;;;4330676;33;20028;-68
2022/09/16 13:42:50;;;;;;;12.45;2.30;;;;;;;;;;4346379;33;20032;-68
2022/09/16 13:45:33;;;;;;;10.73;2.05;;;;;;;;;;4345130;33;20528;-68
2022/09/16 13:51:39;;;;;;;;;;;;;;;;;;;;;
2022/09/16 13:54:17;;;;;;;15.43;2.83;;;;;;;;;;4286543;33;20036;-69
2022/09/16 13:57:07;;;;;;;10.88;2.65;;;;;;;;;;4315164;33;20020;-69
2022/09/16 13:59:51;;;;;;;16.45;2.97;;;;;;;;;;4316783;33;20058;-69
2022/09/16 14:05:41;;;;;;;9.07;2.45;;;;;;;;;;4305466;33;20121;-69
2022/09/16 14:08:43;;;;;;;13.77;2.92;;;;;;;;;;4315990;33;20063;-69
2022/09/16 14:11:28;;;;;;;12.35;2.83;;;;;;;;;;4310967;33;20395;-69
2022/09/16 14:13:56;;;;;;;18.35;3.72;;;;;;;;;;4315685;33;20051;-70
2022/09/16 14:16:25;;;;;;;16.42;3.00;;;;;;;;;;4316483;33;20028;-69
2022/09/16 14:19:05;;;;;;;10.80;2.50;;;;;;;;;;4316409;33;20080;-69
2022/09/16 14:21:30;;;;;;;17.35;3.30;;;;;;;;;;4314958;33;20062;-69
2022/09/16 14:24:25;;;;;;;9.68;2.65;;;;;;;;;;4316569;33;20036;-69
2022/09/16 14:26:52;;;;;;;8.38;2.53;;;;;;;;;;4308869;33;20058;-70
2022/09/16 14:29:17;;;;;;;8.68;1.90;;;;;;;;;;4316004;33;20058;-69
2022/09/16 14:31:44;;;;;;;11.82;2.78;;;;;;;;;;4316899;33;20331;-69
2022/09/16 14:34:14;;;;;;;9.43;2.33;;;;;;;;;;4315849;33;20394;-69
2022/09/16 14:36:42;;;;;;;11.12;2.80;;;;;;;;;;4316465;33;20052;-69
2022/09/16 14:39:13;;;;;;;6.12;1.80;;;;;;;;;;4315688;33;20427;-69
2022/09/16 14:41:42;;;;;;;12.73;2.60;;;;;;;;;;4302653;33;20055;-70
2022/09/16 14:44:19;;;;;;;10.48;2.72;;;;;;;;;;4316171;33;20079;-69
2022/09/16 14:46:48;;;;;;;8.43;1.85;;;;;;;;;;4316614;33;20095;-70
2022/09/16 14:49:14;;;;;;;4.40;1.80;;;;;;;;;;4315715;33;20063;-70
2022/09/16 14:51:44;;;;;;;8.60;1.80;;;;;;;;;;4303179;33;20409;-70
2022/09/16 14:54:20;;;;;;;6.72;2.00;;;;;;;;;;4316436;33;20025;-70
2022/09/16 14:57:22;;;;;;;12.30;2.60;;;;;;;;;;4316450;33;20104;-71
2022/09/16 14:59:48;;;;;;;11.10;2.00;;;;;;;;;;4316041;33;20044;-71
2022/09/16 15:02:16;;;;;;;11.18;2.70;;;;;;;;;;4302600;33;20373;-71
2022/09/16 15:04:43;;;;;;;8.32;2.85;;;;;;;;;;4316793;33;20051;-71
2022/09/16 15:07:10;;;;;;;14.63;2.80;;;;;;;;;;4315926;33;20067;-71
2022/09/16 15:09:41;;;;;;;8.43;2.47;;;;;;;;;;4315659;33;20029;-70
2022/09/16 15:12:15;;;;;;;12.80;2.25;;;;;;;;;;4315316;33;20036;-70
2022/09/16 15:14:40;;;;;;;10.73;2.50;;;;;;;;;;4316957;33;20095;-70
2022/09/16 15:17:06;;;;;;;17.30;2.97;;;;;;;;;;4318617;33;20044;-70
2022/09/16 15:19:34;;;;;;;12.73;3.15;;;;;;;;;;4319431;33;20163;-70
2022/09/16 15:21:59;;;;;;;14.05;3.35;;;;;;;;;;4318714;33;20048;-70
2022/09/16 15:24:32;;;;;;;10.15;2.58;;;;;;;;;;4318878;33;20084;-70
2022/09/16 15:27:10;;;;;;;12.90;2.47;;;;;;;;;;4319076;33;20066;-70
2022/09/16 15:30:06;;;;;;;10.02;2.65;;;;;;;;;;4319032;33;20028;-70
2022/09/16 15:32:54;;;;;;;16.73;2.83;;;;;;;;;;4299300;33;20076;-70
2022/09/16 15:35:29;;;;;;;18.73;3.83;;;;;;;;;;4319079;33;20411;-70
2022/09/16 15:38:19;;;;;;;11.75;2.67;;;;;;;;;;4322050;33;20045;-70
2022/09/16 15:41:51;;;;;;;12.32;2.40;;;;;;;;;;4318657;33;20037;-70
2022/09/16 15:43:54;;;;;;;13.80;2.42;;;;;;;;;;4296276;33;20037;-69
2022/09/16 15:46:28;;;;;;;14.87;2.75;;;;;;;;;;4318446;33;20055;-69
2022/09/16 15:48:55;;;;;;;15.75;2.60;;;;;;;;;;4318650;33;20024;-69
2022/09/16 15:51:27;;;;;;;10.30;2.35;;;;;;;;;;4318306;33;20040;-69
2022/09/16 15:53:55;;;;;;;11.77;2.30;;;;;;;;;;4318480;33;20042;-69
2022/09/16 15:56:53;;;;;;;9.43;1.92;;;;;;;;;;4316659;33;20028;-69
2022/09/16 15:59:24;;;;;;;12.73;1.70;;;;;;;;;;4299708;33;20098;-69
2022/09/16 16:01:52;;;;;;;8.82;2.15;;;;;;;;;;4328889;33;20107;-69
2022/09/16 16:04:24;;;;;;;11.40;1.90;;;;;;;;;;4332601;33;20454;-69
2022/09/16 16:06:52;;;;;;;7.65;2.05;;;;;;;;;;4332533;33;20028;-69
2022/09/16 16:09:26;;;;;;;9.75;2.20;;;;;;;;;;4332000;33;20414;-69
2022/09/16 16:11:57;;;;;;;14.77;2.83;;;;;;;;;;4331123;33;20097;-69
2022/09/16 16:14:23;;;;;;;11.43;2.20;;;;;;;;;;4332981;33;20086;-69
2022/09/16 16:16:50;;;;;;;14.15;2.40;;;;;;;;;;4332904;33;20066;-69
2022/09/16 16:19:15;;;;;;;11.23;2.37;;;;;;;;;;4332397;33;20055;-68
2022/09/16 16:21:44;;;;;;;8.45;2.47;;;;;;;;;;4332115;33;20087;-69
2022/09/16 16:24:10;;;;;;;7.72;2.22;;;;;;;;;;4330621;33;20036;-69
2022/09/16 16:26:36;;;;;;;11.05;3.45;;;;;;;;;;4331702;33;20410;-69
2022/09/16 16:29:01;;;;;;;9.00;2.25;;;;;;;;;;4332527;33;20024;-69
2022/09/16 16:31:26;;;;;;;12.50;2.50;;;;;;;;;;4327583;33;20121;-69
2022/09/16 16:33:51;;;;;;;8.88;2.22;;;;;;;;;;4330232;33;20028;-69
2022/09/16 16:36:20;;;;;;;10.90;2.67;;;;;;;;;;4330348;33;20427;-69
2022/09/16 16:38:47;;;;;;;10.25;2.62;;;;;;;;;;4316760;33;20045;-68
2022/09/16 16:41:18;;;;;;;13.75;2.62;;;;;;;;;;4329812;33;20062;-69
2022/09/16 16:43:43;;;;;;;8.55;2.53;;;;;;;;;;4330417;33;20078;-69
2022/09/16 16:46:09;;;;;;;10.15;2.62;;;;;;;;;;4329162;33;20060;-69
2022/09/16 16:48:34;;;;;;;12.48;3.62;;;;;;;;;;4330126;33;20060;-69
2022/09/16 16:51:02;;;;;;;10.70;2.75;;;;;;;;;;4316152;33;20036;-70
2022/09/16 16:53:31;;;;;;;14.43;3.35;;;;;;;;;;4329693;33;20098;-69
2022/09/16 16:56:08;;;;;;;17.33;4.00;;;;;;;;;;4329232;33;20048;-70
2022/09/16 16:58:40;;;;;;;15.32;3.00;;;;;;;;;;4330822;33;20032;-69
2022/09/16 17:01:07;;;;;;;15.15;2.62;;;;;;;;;;4329697;33;20130;-70
2022/09/16 17:03:32;;;;;;;13.82;3.15;;;;;;;;;;4328720;33;20028;-69
2022/09/16 17:05:58;;;;;;;14.90;3.08;;;;;;;;;;4329816;33;20473;-69
2022/09/16 17:08:23;;;;;;;20.62;3.65;;;;;;;;;;4330107;33;20098;-70
2022/09/16 17:11:09;;;;;;;9.43;2.62;;;;;;;;;;4330116;33;20124;-69
2022/09/16 17:13:35;;;;;;;11.93;3.05;;;;;;;;;;4331424;33;20055;-68
2022/09/16 17:16:00;;;;;;;14.52;3.20;;;;;;;;;;4330105;33;20167;-70
2022/09/16 17:18:25;;;;;;;15.00;3.20;;;;;;;;;;4329742;33;20422;-70
2022/09/16 17:20:51;;;;;;;11.68;3.28;;;;;;;;;;4329377;33;20381;-69
2022/09/16 17:23:16;;;;;;;12.70;2.90;;;;;;;;;;4329575;33;20087;-70
2022/09/16 17:25:41;;;;;;;17.65;3.47;;;;;;;;;;4329712;33;20073;-70
2022/09/16 17:28:07;;;;;;;19.90;3.72;;;;;;;;;;4329874;33;20103;-69
2022/09/16 17:30:32;;;;;;;18.27;3.15;;;;;;;;;;4329551;33;20328;-69
2022/09/16 17:32:57;;;;;;;11.68;2.58;;;;;;;;;;4328753;33;20086;-68
2022/09/16 17:35:23;;;;;;;9.35;2.80;;;;;;;;;;4331386;33;20032;-69
2022/09/16 17:37:48;;;;;;;11.88;3.22;;;;;;;;;;4330643;33;20139;-70
2022/09/16 17:40:16;;;;;;;13.48;3.30;;;;;;;;;;4331390;33;20027;-70
2022/09/16 17:42:42;;;;;;;12.57;3.05;;;;;;;;;;4331849;33;20051;-70
2022/09/16 17:45:07;;;;;;;18.48;4.20;;;;;;;;;;4331311;33;20055;-70
2022/09/16 17:47:33;;;;;;;15.18;4.30;;;;;;;;;;4331292;33;20402;-70
2022/09/16 17:50:02;;;;;;;11.70;3.62;;;;;;;;;;4331485;33;20062;-70
2022/09/16 17:52:35;;;;;;;17.33;4.57;;;;;;;;;;4331610;33;20062;-70
2022/09/16 17:55:00;;;;;;;20.52;5.55;;;;;;;;;;4331296;33;20027;-69
2022/09/16 17:57:26;;;;;;;16.35;3.65;;;;;;;;;;4331276;33;20027;-70
2022/09/16 17:59:51;;;;;;;17.40;3.58;;;;;;;;;;4332244;33;20059;-70
2022/09/16 18:02:17;;;;;;;16.33;3.87;;;;;;;;;;4331788;33;20465;-70
2022/09/16 18:04:42;;;;;;;24.87;3.85;;;;;;;;;;4331370;33;20028;-70
2022/09/16 18:07:08;;;;;;;22.70;3.65;;;;;;;;;;4332255;33;20027;-70
2022/09/16 18:09:33;;;;;;;14.07;2.55;;;;;;;;;;4331351;33;20079;-71
2022/09/16 18:11:59;;;;;;;11.77;2.70;;;;;;;;;;4331519;33;20032;-71
2022/09/16 18:14:27;;;;;;;21.08;3.50;;;;;;;;;;4331089;33;20027;-70
2022/09/16 18:20:06;;;;;;;17.15;4.57;;;;;;;;;;4331151;33;20109;-71
2022/09/16 18:22:32;;;;;;;18.52;4.68;;;;;;;;;;4331083;33;20335;-71
2022/09/16 18:24:57;;;;;;;;;;;;;;;;;;4332787;33;20071;-71
2022/09/16 18:27:22;;;;;;;18.65;3.90;;;;;;;;;;4330980;33;19974;-71
2022/09/16 18:29:48;;;;;;;;;;;;;;;;;;4331168;33;20159;-71
2022/09/16 18:32:13;;;;;;;17.37;3.65;;;;;;;;;;4330520;33;19940;-71
2022/09/16 18:34:38;;;;;;;;;;;;;;;;;;4331983;33;20152;-71
2022/09/16 18:37:04;;;;;;;15.85;3.17;;;;;;;;;;4331988;33;19950;-72
2022/09/16 18:39:29;;;;;;;21.12;3.00;;;;;;;;;;4331311;33;20028;-71
2022/09/16 18:41:55;;;;;;;20.85;3.67;;;;;;;;;;4330456;33;20079;-71
2022/09/16 18:44:22;;;;;;;15.88;3.30;;;;;;;;;;4331687;33;20036;-71
2022/09/16 18:46:48;;;;;;;15.82;3.75;;;;;;;;;;4327564;33;20039;-71
2022/09/16 18:49:25;;;;;;;16.25;2.78;;;;;;;;;;4328506;33;20058;-70
2022/09/16 18:51:51;;;;;;;17.92;2.90;;;;;;;;;;4331625;33;20041;-70
2022/09/16 18:54:18;;;;;;;13.93;3.22;;;;;;;;;;4331167;33;20422;-70
2022/09/16 18:56:44;;;;;;;22.15;4.30;;;;;;;;;;4332793;33;20047;-71
2022/09/16 18:59:16;;;;;;;16.52;4.45;;;;;;;;;;4331872;33;20425;-71
2022/09/16 19:01:42;;;;;;;21.52;4.70;;;;;;;;;;4332104;33;20035;-71
2022/09/16 19:04:10;;;;;;;17.05;3.35;;;;;;;;;;4331779;33;20063;-70
2022/09/16 19:07:08;;;;;;;15.73;3.47;;;;;;;;;;4331993;33;20052;-70
2022/09/16 19:09:41;;;;;;;20.45;3.75;;;;;;;;;;4328385;33;20039;-70
2022/09/16 19:12:10;;;;;;;13.27;3.10;;;;;;;;;;4331699;33;20047;-70
2022/09/16 19:14:35;;;;;;;12.88;3.85;;;;;;;;;;4331198;33;20111;-71
2022/09/16 19:17:04;;;;;;;12.88;3.55;;;;;;;;;;4331776;33;20461;-70
2022/09/16 19:19:30;;;;;;;23.33;4.97;;;;;;;;;;4332114;33;20090;-70
2022/09/16 19:21:55;;;;;;;;;;;;;;;;;;4331648;33;20095;-71
2022/09/16 19:24:21;;;;;;;22.30;4.22;;;;;;;;;;4331706;33;19935;-71
2022/09/16 19:26:47;;;;;;;13.43;3.95;;;;;;;;;;4331712;33;20044;-70
2022/09/16 19:29:13;;;;;;;;;;;;;;;;;;4318458;33;20039;-70
2022/09/16 19:31:41;;;;;;;21.70;4.37;;;;;;;;;;4331968;33;20025;-70
2022/09/16 19:34:07;;;;;;;19.87;4.22;;;;;;;;;;4330934;33;20415;-70
2022/09/16 19:36:33;;;;;;;25.05;4.40;;;;;;;;;;4332586;33;20187;-70
2022/09/16 19:38:59;;;;;;;16.40;4.03;;;;;;;;;;4333654;33;20055;-70
2022/09/16 19:41:26;;;;;;;18.42;3.75;;;;;;;;;;4332629;33;20070;-70
2022/09/16 19:43:54;;;;;;;18.40;3.78;;;;;;;;;;4331633;33;20024;-71
2022/09/16 19:46:20;;;;;;;21.40;3.65;;;;;;;;;;4319225;33;20023;-71
2022/09/16 19:48:47;;;;;;;21.85;4.03;;;;;;;;;;4333244;33;20057;-70
2022/09/16 19:51:13;;;;;;;19.87;3.80;;;;;;;;;;4333070;33;20403;-71
2022/09/16 19:53:39;;;;;;;24.35;4.18;;;;;;;;;;4333527;33;20068;-71
2022/09/16 19:56:08;;;;;;;20.65;3.53;;;;;;;;;;4333063;33;20426;-71